createdAt,value
2019-01-06T00:04:37.057Z,3.50
2019-01-06T00:07:10.394Z,3.54
2019-01-06T00:09:55.122Z,3.52
2019-01-06T00:12:25.791Z,3.49
2019-01-06T00:14:56.555Z,3.44
2019-01-06T00:17:24.570Z,3.48
2019-01-06T00:19:52.284Z,3.47
2019-01-06T00:22:28.883Z,3.50
2019-01-06T00:25:05.231Z,3.55
2019-01-06T00:27:33.050Z,3.59
2019-01-06T00:30:03.834Z,3.58
2019-01-06T00:32:31.578Z,3.60
2019-01-06T00:34:59.586Z,3.60
2019-01-06T00:37:38.822Z,3.59
2019-01-06T00:40:23.530Z,3.61
2019-01-06T00:43:00.215Z,3.63
2019-01-06T00:45:45.998Z,3.60
2019-01-06T00:48:14.009Z,3.54
2019-01-06T00:51:00.305Z,3.52
2019-01-06T00:53:34.186Z,3.53
2019-01-06T00:56:18.494Z,3.56
2019-01-06T00:59:04.608Z,3.51
2019-01-06T01:01:35.331Z,3.52
2019-01-06T01:04:08.794Z,3.50
2019-01-06T01:06:39.654Z,3.49
2019-01-06T01:09:43.968Z,3.49
2019-01-06T01:12:18.393Z,3.49
2019-01-06T01:17:49.926Z,3.49
2019-01-06T01:20:29.894Z,3.44
2019-01-06T01:23:14.300Z,3.41
2019-01-06T01:26:00.513Z,3.40
2019-01-06T01:28:45.209Z,3.41
2019-01-06T01:31:30.368Z,3.40
2019-01-06T01:34:06.669Z,3.28
2019-01-06T01:36:43.342Z,3.39
2019-01-06T01:39:14.109Z,3.37
2019-01-06T01:41:47.779Z,3.37
2019-01-06T01:44:21.850Z,3.36
2019-01-06T01:46:52.349Z,3.34
2019-01-06T01:49:36.836Z,3.38
2019-01-06T01:52:16.651Z,3.36
2019-01-06T01:55:01.101Z,3.34
2019-01-06T01:57:29.126Z,3.31
2019-01-06T02:00:09.321Z,3.32
2019-01-06T02:02:43.210Z,3.34
2019-01-06T02:05:27.522Z,3.36
2019-01-06T02:08:12.020Z,3.33
2019-01-06T02:10:42.320Z,3.30
2019-01-06T02:13:20.617Z,3.30
2019-01-06T02:16:05.274Z,3.33
2019-01-06T02:18:33.381Z,3.30
2019-01-06T02:21:01.091Z,3.32
2019-01-06T02:23:34.830Z,3.28
2019-01-06T02:26:19.008Z,3.30
2019-01-06T02:28:52.866Z,3.28
2019-01-06T02:31:38.803Z,3.27
2019-01-06T02:34:23.283Z,3.31
2019-01-06T02:37:07.639Z,3.28
2019-01-06T02:39:47.310Z,3.32
2019-01-06T02:42:30.414Z,3.30
2019-01-06T02:44:58.390Z,3.29
2019-01-06T02:47:26.398Z,3.29
2019-01-06T02:50:00.324Z,3.30
2019-01-06T02:52:40.252Z,3.35
2019-01-06T02:55:08.003Z,3.34
2019-01-06T02:57:52.681Z,3.32
2019-01-06T03:00:20.411Z,3.33
2019-01-06T03:02:50.924Z,3.31
2019-01-06T03:05:18.948Z,3.35
2019-01-06T03:07:52.878Z,3.33
2019-01-06T03:10:20.609Z,3.38
2019-01-06T03:12:54.752Z,3.43
2019-01-06T03:15:25.559Z,3.45
2019-01-06T03:18:09.920Z,3.46
2019-01-06T03:20:54.538Z,3.45
2019-01-06T03:23:37.239Z,3.43
2019-01-06T03:26:04.945Z,3.39
2019-01-06T03:28:41.529Z,3.38
2019-01-06T03:31:11.999Z,3.33
2019-01-06T03:33:39.983Z,3.29
2019-01-06T03:36:24.401Z,3.31
2019-01-06T03:38:52.409Z,3.33
2019-01-06T03:41:20.154Z,3.31
2019-01-06T03:44:00.286Z,3.32
2019-01-06T03:49:33.958Z,3.28
2019-01-06T03:52:13.651Z,3.28
2019-01-06T03:54:53.808Z,3.31
2019-01-06T03:57:39.520Z,3.36
2019-01-06T04:00:20.427Z,3.36
2019-01-06T04:02:54.591Z,3.38
2019-01-06T04:05:22.315Z,3.44
2019-01-06T04:07:53.142Z,3.40
2019-01-06T04:10:36.285Z,3.40
2019-01-06T04:13:22.600Z,3.42
2019-01-06T04:15:53.493Z,3.42
2019-01-06T04:18:27.729Z,3.43
2019-01-06T04:21:12.481Z,3.41
2019-01-06T04:23:46.413Z,3.40
2019-01-06T04:26:31.280Z,3.39
2019-01-06T04:29:15.954Z,3.40
2019-01-06T04:31:46.785Z,3.38
2019-01-06T04:34:32.078Z,3.35
2019-01-06T04:37:17.081Z,3.36
2019-01-06T04:40:03.636Z,3.35
2019-01-06T04:42:31.400Z,3.37
2019-01-06T04:45:16.522Z,3.32
2019-01-06T04:48:01.027Z,3.30
2019-01-06T04:50:31.452Z,3.33
2019-01-06T04:53:01.713Z,3.34
2019-01-06T04:55:46.432Z,3.33
2019-01-06T04:58:31.214Z,3.34
2019-01-06T05:01:01.962Z,3.37
2019-01-06T05:03:35.585Z,3.36
2019-01-06T05:06:10.962Z,3.30
2019-01-06T05:08:38.725Z,3.34
2019-01-06T05:11:15.750Z,3.29
2019-01-06T05:13:52.545Z,3.29
2019-01-06T05:16:20.263Z,3.30
2019-01-06T05:18:48.278Z,3.30
2019-01-06T05:21:31.523Z,3.27
2019-01-06T05:23:59.277Z,3.32
2019-01-06T05:26:27.036Z,3.29
2019-01-06T05:28:54.751Z,3.25
2019-01-06T05:31:34.765Z,3.30
2019-01-06T05:34:08.556Z,3.27
2019-01-06T05:36:45.316Z,3.28
2019-01-06T05:39:15.643Z,3.31
2019-01-06T05:41:43.391Z,3.32
2019-01-06T05:44:19.986Z,3.30
2019-01-06T05:47:10.927Z,3.34
2019-01-06T05:49:47.506Z,3.29
2019-01-06T05:52:27.672Z,3.32
2019-01-06T05:54:58.477Z,3.36
2019-01-06T05:57:32.340Z,3.36
2019-01-06T06:00:18.361Z,3.34
2019-01-06T06:02:52.285Z,3.31
2019-01-06T06:05:25.905Z,3.31
2019-01-06T06:07:53.651Z,3.34
2019-01-06T06:10:24.192Z,3.36
2019-01-06T06:13:08.803Z,3.30
2019-01-06T06:15:48.492Z,3.34
2019-01-06T06:18:21.810Z,3.32
2019-01-06T06:20:58.712Z,3.34
2019-01-06T06:26:32.275Z,3.29
2019-01-06T06:29:02.755Z,3.31
2019-01-06T06:31:30.765Z,3.35
2019-01-06T06:33:58.506Z,3.24
2019-01-06T06:36:32.334Z,3.22
2019-01-06T06:39:00.080Z,3.24
2019-01-06T06:41:33.546Z,3.22
2019-01-06T06:44:06.889Z,3.28
2019-01-06T06:46:37.398Z,3.28
2019-01-06T06:49:05.383Z,3.27
2019-01-06T06:51:42.152Z,3.29
2019-01-06T06:54:09.890Z,3.33
2019-01-06T06:56:43.501Z,3.33
2019-01-06T06:59:28.170Z,3.32
2019-01-06T07:02:35.178Z,3.36
2019-01-06T07:05:15.395Z,3.34
2019-01-06T07:07:43.159Z,3.32
2019-01-06T07:10:16.728Z,3.33
2019-01-06T07:12:44.733Z,3.29
2019-01-06T07:15:15.110Z,3.31
2019-01-06T07:17:49.321Z,3.36
2019-01-06T07:20:22.626Z,3.33
2019-01-06T07:22:53.450Z,3.34
2019-01-06T07:25:25.040Z,3.33
2019-01-06T07:31:14.883Z,3.39
2019-01-06T07:33:45.386Z,3.39
2019-01-06T07:36:29.830Z,3.35
2019-01-06T07:39:06.599Z,3.42
2019-01-06T07:41:51.397Z,3.43
2019-01-06T07:44:25.241Z,3.48
2019-01-06T07:47:02.192Z,3.48
2019-01-06T07:49:36.034Z,3.46
2019-01-06T07:52:13.212Z,3.49
2019-01-06T07:54:57.841Z,3.52
2019-01-06T07:57:42.466Z,3.52
2019-01-06T08:00:15.134Z,3.49
2019-01-06T08:02:56.643Z,3.44
2019-01-06T08:05:33.689Z,3.43
2019-01-06T08:08:18.436Z,3.42
2019-01-06T08:11:05.778Z,3.48
2019-01-06T08:13:39.563Z,3.46
2019-01-06T08:16:24.435Z,3.38
2019-01-06T08:21:56.288Z,3.51
2019-01-06T08:24:36.435Z,3.51
2019-01-06T08:27:04.177Z,3.50
2019-01-06T08:29:48.953Z,3.51
2019-01-06T08:32:16.692Z,3.57
2019-01-06T08:34:50.491Z,3.59
2019-01-06T08:37:35.025Z,3.62
2019-01-06T08:40:15.221Z,3.63
2019-01-06T08:45:43.168Z,3.61
2019-01-06T08:48:27.533Z,3.59
2019-01-06T08:50:55.283Z,3.61
2019-01-06T08:53:40.133Z,3.67
2019-01-06T08:56:26.246Z,3.64
2019-01-06T08:59:00.087Z,3.55
2019-01-06T09:01:43.031Z,3.62
2019-01-06T09:04:26.263Z,3.67
2019-01-06T09:07:12.473Z,3.74
2019-01-06T09:09:50.657Z,3.67
2019-01-06T09:12:18.373Z,3.68
2019-01-06T09:14:55.189Z,3.72
2019-01-06T09:17:28.978Z,3.70
2019-01-06T09:19:59.626Z,3.63
2019-01-06T09:22:44.416Z,3.71
2019-01-06T09:25:12.399Z,3.77
2019-01-06T09:27:48.935Z,3.78
2019-01-06T09:30:16.660Z,3.77
2019-01-06T09:32:44.418Z,3.78
2019-01-06T09:35:18.165Z,3.79
2019-01-06T09:38:04.218Z,3.53
2019-01-06T09:40:42.258Z,3.80
2019-01-06T09:43:12.920Z,3.79
2019-01-06T09:45:40.939Z,3.81
2019-01-06T09:48:14.324Z,3.86
2019-01-06T09:50:51.446Z,3.88
2019-01-06T09:53:36.232Z,3.91
2019-01-06T09:58:59.892Z,3.91
2019-01-06T10:01:27.658Z,3.90
2019-01-06T10:04:12.620Z,3.95
2019-01-06T10:06:43.149Z,3.98
2019-01-06T10:09:13.984Z,4.01
2019-01-06T10:11:44.758Z,3.98
2019-01-06T10:14:12.520Z,3.99
2019-01-06T10:16:57.267Z,3.96
2019-01-06T10:19:33.925Z,3.91
2019-01-06T10:22:01.782Z,3.92
2019-01-06T10:24:51.906Z,3.97
2019-01-06T10:27:33.169Z,3.98
2019-01-06T10:30:01.212Z,3.94
2019-01-06T10:32:41.244Z,3.93
2019-01-06T10:35:25.794Z,3.91
2019-01-06T10:38:09.896Z,3.93
2019-01-06T10:40:37.645Z,3.93
2019-01-06T10:43:22.325Z,3.96
2019-01-06T10:45:50.034Z,3.95
2019-01-06T10:48:17.790Z,4.03
2019-01-06T10:50:45.488Z,4.03
2019-01-06T10:53:30.192Z,4.03
2019-01-06T10:56:00.666Z,3.95
2019-01-06T10:58:34.533Z,3.98
2019-01-06T11:01:11.472Z,4.03
2019-01-06T11:03:56.100Z,4.08
2019-01-06T11:06:26.614Z,4.01
2019-01-06T11:09:11.402Z,3.98
2019-01-06T11:11:56.253Z,3.98
2019-01-06T11:14:39.172Z,4.04
2019-01-06T11:17:16.434Z,4.07
2019-01-06T11:19:50.225Z,4.08
2019-01-06T11:22:24.506Z,4.13
2019-01-06T11:25:08.871Z,4.09
2019-01-06T11:27:36.606Z,4.10
2019-01-06T11:30:24.783Z,4.04
2019-01-06T11:32:52.495Z,3.98
2019-01-06T11:35:23.246Z,3.98
2019-01-06T11:38:05.891Z,3.98
2019-01-06T11:40:39.857Z,3.99
2019-01-06T11:43:25.538Z,3.95
2019-01-06T11:46:08.804Z,3.96
2019-01-06T11:48:42.272Z,4.08
2019-01-06T11:51:27.062Z,4.04
2019-01-06T11:53:55.087Z,4.13
2019-01-06T11:56:25.629Z,4.17
2019-01-06T11:58:57.086Z,4.29
2019-01-06T12:01:26.031Z,4.36
2019-01-06T12:03:57.108Z,4.32
2019-01-06T12:06:41.923Z,4.27
2019-01-06T12:09:09.629Z,4.40
2019-01-06T12:11:42.997Z,4.40
2019-01-06T12:14:25.880Z,4.39
2019-01-06T12:16:53.956Z,4.55
2019-01-06T12:19:21.609Z,4.49
2019-01-06T12:21:49.349Z,4.47
2019-01-06T12:24:32.505Z,4.51
2019-01-06T12:27:12.289Z,4.53
2019-01-06T12:29:58.196Z,4.59
2019-01-06T12:32:41.022Z,4.58
2019-01-06T12:35:25.984Z,4.56
2019-01-06T12:37:54.084Z,4.52
2019-01-06T12:40:37.188Z,4.44
2019-01-06T12:43:14.235Z,4.49
2019-01-06T12:45:57.177Z,4.55
2019-01-06T12:48:25.170Z,4.51
2019-01-06T12:51:02.324Z,4.48
2019-01-06T12:53:45.813Z,4.48
2019-01-06T12:56:30.436Z,4.40
2019-01-06T12:59:15.213Z,4.49
2019-01-06T13:01:59.655Z,4.50
2019-01-06T13:04:30.325Z,4.54
2019-01-06T13:07:07.433Z,4.50
2019-01-06T13:09:44.256Z,4.51
2019-01-06T13:12:28.403Z,4.50
2019-01-06T13:15:01.969Z,4.46
2019-01-06T13:17:46.556Z,4.47
2019-01-06T13:20:14.377Z,4.45
2019-01-06T13:22:51.055Z,4.44
2019-01-06T13:25:19.043Z,4.54
2019-01-06T13:27:55.641Z,4.57
2019-01-06T13:30:40.589Z,4.55
2019-01-06T13:33:24.972Z,4.50
2019-01-06T13:35:55.519Z,4.51
2019-01-06T13:38:29.352Z,4.46
2019-01-06T13:41:08.950Z,4.44
2019-01-06T13:43:36.685Z,4.35
2019-01-06T13:46:04.438Z,4.36
2019-01-06T13:48:32.145Z,4.39
2019-01-06T13:51:12.021Z,4.40
2019-01-06T13:53:52.219Z,4.46
2019-01-06T13:56:26.300Z,4.44
2019-01-06T13:59:09.405Z,4.42
2019-01-06T14:01:37.153Z,4.44
2019-01-06T14:04:08.121Z,4.39
2019-01-06T14:06:38.402Z,4.42
2019-01-06T14:09:15.462Z,4.45
2019-01-06T14:11:55.500Z,4.45
2019-01-06T14:14:32.575Z,4.48
2019-01-06T14:17:03.587Z,4.43
2019-01-06T14:19:34.387Z,4.36
2019-01-06T14:22:02.127Z,4.32
2019-01-06T14:24:48.079Z,4.29
2019-01-06T14:27:32.468Z,4.32
2019-01-06T14:30:17.553Z,4.24
2019-01-06T14:33:01.735Z,4.30
2019-01-06T14:35:46.388Z,4.37
2019-01-06T14:38:29.614Z,4.29
2019-01-06T14:41:03.179Z,4.25
2019-01-06T14:43:33.463Z,4.23
2019-01-06T14:46:04.598Z,4.28
2019-01-06T14:48:50.461Z,4.21
2019-01-06T14:51:23.811Z,4.28
2019-01-06T14:53:57.673Z,4.24
2019-01-06T14:59:15.729Z,4.19
2019-01-06T15:01:55.495Z,4.08
2019-01-06T15:04:23.507Z,4.13
2019-01-06T15:06:57.185Z,4.03
2019-01-06T15:09:25.186Z,4.06
2019-01-06T15:12:02.045Z,4.15
2019-01-06T15:14:35.805Z,4.03
2019-01-06T15:17:23.947Z,4.06
2019-01-06T15:19:57.989Z,4.05
2019-01-06T15:22:35.141Z,4.02
2019-01-06T15:25:02.859Z,4.00
2019-01-06T15:27:39.958Z,4.02
2019-01-06T15:30:18.034Z,3.98
2019-01-06T15:32:52.134Z,3.93
2019-01-06T15:35:25.910Z,3.93
2019-01-06T15:38:15.216Z,3.89
2019-01-06T15:40:51.992Z,3.84
2019-01-06T15:43:22.756Z,3.84
2019-01-06T15:45:52.975Z,3.83
2019-01-06T15:48:29.572Z,3.77
2019-01-06T15:51:03.189Z,3.72
2019-01-06T15:53:47.357Z,3.79
2019-01-06T15:56:18.124Z,3.78
2019-01-06T15:58:54.956Z,3.74
2019-01-06T16:01:39.690Z,3.74
2019-01-06T16:04:07.721Z,3.76
2019-01-06T16:06:35.748Z,3.72
2019-01-06T16:09:20.667Z,3.81
2019-01-06T16:12:05.658Z,3.74
2019-01-06T16:14:49.999Z,3.65
2019-01-06T16:17:26.782Z,3.63
2019-01-06T16:20:00.023Z,3.63
2019-01-06T16:22:36.919Z,3.64
2019-01-06T16:25:06.648Z,3.69
2019-01-06T16:27:46.453Z,3.65
2019-01-06T16:30:14.186Z,3.65
2019-01-06T16:35:50.939Z,3.65
2019-01-06T16:38:26.593Z,3.61
2019-01-06T16:40:57.126Z,3.60
2019-01-06T16:43:34.290Z,3.61
2019-01-06T16:46:18.683Z,3.65
2019-01-06T16:49:03.442Z,3.72
2019-01-06T16:51:31.157Z,3.74
2019-01-06T16:53:58.940Z,3.69
2019-01-06T16:59:48.109Z,3.63
2019-01-06T17:02:32.769Z,3.69
2019-01-06T17:05:09.363Z,3.68
2019-01-06T17:07:53.965Z,3.68
2019-01-06T17:10:38.746Z,3.63
2019-01-06T17:13:24.838Z,3.64
2019-01-06T17:16:04.735Z,3.67
2019-01-06T17:18:49.176Z,3.69
2019-01-06T17:21:28.904Z,3.61
2019-01-06T17:24:05.434Z,3.70
2019-01-06T17:26:39.279Z,3.84
2019-01-06T17:29:23.524Z,3.74
2019-01-06T17:34:45.007Z,3.65
2019-01-06T17:37:18.897Z,3.65
2019-01-06T17:39:49.733Z,3.63
2019-01-06T17:42:34.341Z,3.66
2019-01-06T17:45:16.953Z,3.71
2019-01-06T17:48:03.099Z,3.72
2019-01-06T17:50:50.579Z,3.61
2019-01-06T17:53:37.006Z,3.65
2019-01-06T17:56:17.270Z,3.58
2019-01-06T17:58:48.150Z,3.52
2019-01-06T18:01:16.172Z,3.48
2019-01-06T18:03:43.917Z,3.52
2019-01-06T18:06:11.911Z,3.54
2019-01-06T18:09:00.033Z,3.53
2019-01-06T18:11:30.596Z,3.57
2019-01-06T18:14:04.190Z,3.56
2019-01-06T18:16:37.438Z,3.49
2019-01-06T18:19:22.157Z,3.56
2019-01-06T18:21:49.898Z,3.49
2019-01-06T18:24:34.411Z,3.43
2019-01-06T18:27:17.633Z,3.48
2019-01-06T18:29:54.478Z,3.52
2019-01-06T18:32:25.051Z,3.45
2019-01-06T18:35:10.014Z,3.47
2019-01-06T18:37:40.801Z,3.52
2019-01-06T18:43:14.598Z,3.61
2019-01-06T18:45:58.786Z,3.56
2019-01-06T18:48:32.600Z,3.61
2019-01-06T18:51:00.330Z,3.61
2019-01-06T18:53:40.746Z,3.62
2019-01-06T18:56:17.887Z,3.59
2019-01-06T18:58:51.841Z,3.57
2019-01-06T19:01:31.785Z,3.61
2019-01-06T19:04:15.177Z,3.62
2019-01-06T19:06:48.741Z,3.66
2019-01-06T19:09:16.492Z,3.68
2019-01-06T19:12:02.407Z,3.67
2019-01-06T19:14:33.245Z,3.74
2019-01-06T19:17:00.965Z,3.78
2019-01-06T19:19:28.694Z,3.74
2019-01-06T19:22:13.746Z,3.81
2019-01-06T19:24:41.498Z,3.77
2019-01-06T19:29:55.525Z,3.70
2019-01-06T19:32:38.400Z,3.75
2019-01-06T19:35:08.651Z,3.66
2019-01-06T19:37:48.241Z,3.65
2019-01-06T19:40:22.017Z,3.69
2019-01-06T19:42:49.800Z,3.66
2019-01-06T19:45:29.293Z,3.64
2019-01-06T19:48:14.894Z,3.66
2019-01-06T19:50:51.796Z,3.66
2019-01-06T19:53:19.654Z,3.71
2019-01-06T19:56:04.023Z,3.68
2019-01-06T19:58:41.932Z,3.73
2019-01-06T20:01:15.301Z,3.73
2019-01-06T20:03:48.936Z,3.65
2019-01-06T20:06:22.757Z,3.65
2019-01-06T20:09:06.866Z,3.69
2019-01-06T20:11:46.621Z,3.67
2019-01-06T20:14:16.937Z,3.65
2019-01-06T20:16:50.894Z,3.63
2019-01-06T20:19:35.641Z,3.63
2019-01-06T20:22:03.370Z,3.55
2019-01-06T20:24:37.159Z,3.61
2019-01-06T20:27:04.883Z,3.62
2019-01-06T20:29:49.563Z,3.70
2019-01-06T20:32:23.259Z,3.72
2019-01-06T20:34:50.980Z,3.71
2019-01-06T20:37:35.514Z,3.66
2019-01-06T20:40:18.670Z,3.71
2019-01-06T20:42:55.828Z,3.75
2019-01-06T20:45:42.071Z,3.79
2019-01-06T20:48:18.713Z,3.76
2019-01-06T20:50:46.436Z,3.80
2019-01-06T20:53:20.301Z,3.76
2019-01-06T20:56:03.430Z,3.72
2019-01-06T20:58:49.424Z,3.76
2019-01-06T21:01:26.097Z,3.77
2019-01-06T21:04:10.370Z,3.68
2019-01-06T21:06:56.333Z,3.74
2019-01-06T21:09:29.897Z,3.73
2019-01-06T21:12:00.598Z,3.70
2019-01-06T21:14:45.316Z,3.65
2019-01-06T21:17:22.200Z,3.58
2019-01-06T21:20:06.759Z,3.56
2019-01-06T21:22:40.393Z,3.50
2019-01-06T21:25:24.611Z,3.47
2019-01-06T21:27:55.097Z,3.49
2019-01-06T21:30:41.126Z,3.32
2019-01-06T21:33:08.898Z,3.31
2019-01-06T21:35:42.985Z,3.33
2019-01-06T21:38:13.286Z,3.28
2019-01-06T21:40:44.033Z,3.25
2019-01-06T21:43:14.671Z,3.27
2019-01-06T21:45:51.703Z,3.32
2019-01-06T21:48:22.199Z,3.33
2019-01-06T21:51:08.200Z,3.27
2019-01-06T21:53:52.607Z,3.30
2019-01-06T21:56:29.082Z,3.34
2019-01-06T21:58:59.645Z,3.32
2019-01-06T22:01:36.488Z,3.32
2019-01-06T22:04:07.014Z,3.30
2019-01-06T22:06:34.718Z,3.25
2019-01-06T22:09:02.467Z,3.29
2019-01-06T22:11:32.972Z,3.33
2019-01-06T22:14:17.772Z,3.33
2019-01-06T22:17:02.765Z,3.39
2019-01-06T22:19:36.849Z,3.36
2019-01-06T22:22:04.817Z,3.26
2019-01-06T22:24:48.061Z,3.32
2019-01-06T22:30:26.014Z,3.33
2019-01-06T22:33:10.942Z,3.30
2019-01-06T22:35:38.683Z,3.28
2019-01-06T22:38:06.390Z,3.22
2019-01-06T22:40:51.083Z,3.20
2019-01-06T22:43:35.753Z,3.20
2019-01-06T22:46:22.077Z,3.22
2019-01-06T22:49:08.291Z,3.21
2019-01-06T22:51:38.809Z,3.16
2019-01-06T22:54:18.749Z,3.15
2019-01-06T22:56:52.645Z,3.11
2019-01-06T22:59:29.558Z,3.11
2019-01-06T23:02:03.091Z,3.15
2019-01-06T23:04:33.830Z,3.23
2019-01-06T23:07:23.619Z,3.27
2019-01-06T23:10:05.138Z,3.30
2019-01-06T23:12:38.757Z,3.22
2019-01-06T23:15:21.628Z,3.23
2019-01-06T23:18:05.893Z,3.21
2019-01-06T23:20:51.182Z,3.22
2019-01-06T23:23:24.734Z,3.26
2019-01-06T23:26:02.170Z,3.28
2019-01-06T23:28:35.847Z,3.29
2019-01-06T23:31:03.973Z,3.36
2019-01-06T23:33:48.438Z,3.39
2019-01-06T23:36:16.184Z,2.92
2019-01-06T23:38:44.187Z,3.35
2019-01-06T23:41:15.040Z,3.26
2019-01-06T23:43:49.176Z,3.25
2019-01-06T23:46:16.916Z,3.29
2019-01-06T23:48:44.657Z,3.24
2019-01-06T23:51:30.353Z,3.27
2019-01-06T23:54:14.785Z,3.30
2019-01-06T23:56:42.496Z,3.29
2019-01-06T23:59:13.484Z,3.29
